sensor_id;sensor_type;location;lat;lon;timestamp;P1;durP1;ratioP1;P2;durP2;ratioP2
15669;SDS011;18524;45.190;5.732;2022-09-17T00:03:50;3.30;;;3.10;;
15669;SDS011;18524;45.190;5.732;2022-09-17T00:08:42;3.50;;;3.17;;
15669;SDS011;18524;45.190;5.732;2022-09-17T00:13:33;3.40;;;3.10;;
15669;SDS011;18524;45.190;5.732;2022-09-17T00:18:23;3.50;;;3.20;;
15669;SDS011;18524;45.190;5.732;2022-09-17T00:23:14;3.40;;;2.60;;
15669;SDS011;18524;45.190;5.732;2022-09-17T00:28:04;3.13;;;2.93;;
15669;SDS011;18524;45.190;5.732;2022-09-17T00:32:55;3.40;;;3.10;;
15669;SDS011;18524;45.190;5.732;2022-09-17T00:37:46;3.07;;;2.80;;
15669;SDS011;18524;45.190;5.732;2022-09-17T00:42:37;3.33;;;3.03;;
15669;SDS011;18524;45.190;5.732;2022-09-17T00:47:38;3.03;;;2.83;;
15669;SDS011;18524;45.190;5.732;2022-09-17T00:52:35;3.23;;;2.93;;
15669;SDS011;18524;45.190;5.732;2022-09-17T00:57:29;2.77;;;2.50;;
15669;SDS011;18524;45.190;5.732;2022-09-17T01:02:20;2.83;;;2.63;;
15669;SDS011;18524;45.190;5.732;2022-09-17T01:07:14;3.87;;;2.60;;
15669;SDS011;18524;45.190;5.732;2022-09-17T01:22:46;3.23;;;2.20;;
15669;SDS011;18524;45.190;5.732;2022-09-17T01:33:23;2.27;;;2.17;;
15669;SDS011;18524;45.190;5.732;2022-09-17T01:48:16;2.20;;;2.00;;
15669;SDS011;18524;45.190;5.732;2022-09-17T01:53:09;2.20;;;2.00;;
15669;SDS011;18524;45.190;5.732;2022-09-17T01:58:07;4.23;;;2.37;;
15669;SDS011;18524;45.190;5.732;2022-09-17T02:02:59;2.97;;;2.00;;
15669;SDS011;18524;45.190;5.732;2022-09-17T02:08:06;2.23;;;2.10;;
15669;SDS011;18524;45.190;5.732;2022-09-17T02:13:01;3.57;;;2.00;;
15669;SDS011;18524;45.190;5.732;2022-09-17T02:22:58;4.10;;;2.10;;
15669;SDS011;18524;45.190;5.732;2022-09-17T02:32:54;2.47;;;2.10;;
15669;SDS011;18524;45.190;5.732;2022-09-17T02:37:45;2.50;;;2.00;;
15669;SDS011;18524;45.190;5.732;2022-09-17T02:58:17;2.20;;;2.00;;
15669;SDS011;18524;45.190;5.732;2022-09-17T03:08:15;2.40;;;1.83;;
15669;SDS011;18524;45.190;5.732;2022-09-17T03:13:07;2.10;;;1.90;;
15669;SDS011;18524;45.190;5.732;2022-09-17T03:17:58;2.80;;;2.20;;
15669;SDS011;18524;45.190;5.732;2022-09-17T03:22:50;3.07;;;2.07;;
15669;SDS011;18524;45.190;5.732;2022-09-17T03:27:40;1.97;;;1.80;;
15669;SDS011;18524;45.190;5.732;2022-09-17T03:32:31;1.70;;;1.60;;
15669;SDS011;18524;45.190;5.732;2022-09-17T03:37:22;1.80;;;1.70;;
15669;SDS011;18524;45.190;5.732;2022-09-17T03:42:13;1.90;;;1.70;;
15669;SDS011;18524;45.190;5.732;2022-09-17T03:47:03;2.27;;;1.50;;
15669;SDS011;18524;45.190;5.732;2022-09-17T03:51:53;2.10;;;1.70;;
15669;SDS011;18524;45.190;5.732;2022-09-17T03:56:44;1.60;;;1.50;;
15669;SDS011;18524;45.190;5.732;2022-09-17T04:01:34;2.17;;;1.90;;
15669;SDS011;18524;45.190;5.732;2022-09-17T04:06:25;2.27;;;1.60;;
15669;SDS011;18524;45.190;5.732;2022-09-17T04:11:15;1.90;;;1.70;;
15669;SDS011;18524;45.190;5.732;2022-09-17T04:16:06;1.60;;;1.50;;
15669;SDS011;18524;45.190;5.732;2022-09-17T04:20:56;1.50;;;1.40;;
15669;SDS011;18524;45.190;5.732;2022-09-17T04:25:47;2.73;;;1.70;;
15669;SDS011;18524;45.190;5.732;2022-09-17T04:30:37;1.60;;;1.47;;
15669;SDS011;18524;45.190;5.732;2022-09-17T04:35:28;1.67;;;1.57;;
15669;SDS011;18524;45.190;5.732;2022-09-17T04:40:18;2.23;;;1.40;;
15669;SDS011;18524;45.190;5.732;2022-09-17T04:45:09;1.33;;;1.23;;
15669;SDS011;18524;45.190;5.732;2022-09-17T04:49:59;2.07;;;1.57;;
15669;SDS011;18524;45.190;5.732;2022-09-17T04:54:50;3.07;;;1.53;;
15669;SDS011;18524;45.190;5.732;2022-09-17T04:59:40;1.90;;;1.60;;
15669;SDS011;18524;45.190;5.732;2022-09-17T05:04:30;1.70;;;1.50;;
15669;SDS011;18524;45.190;5.732;2022-09-17T05:09:21;2.03;;;1.60;;
15669;SDS011;18524;45.190;5.732;2022-09-17T05:14:11;1.50;;;1.40;;
15669;SDS011;18524;45.190;5.732;2022-09-17T05:19:03;1.50;;;1.40;;
15669;SDS011;18524;45.190;5.732;2022-09-17T05:23:53;2.50;;;1.40;;
15669;SDS011;18524;45.190;5.732;2022-09-17T05:28:43;1.87;;;1.50;;
15669;SDS011;18524;45.190;5.732;2022-09-17T05:33:34;1.93;;;1.50;;
15669;SDS011;18524;45.190;5.732;2022-09-17T05:38:24;4.13;;;2.00;;
15669;SDS011;18524;45.190;5.732;2022-09-17T05:43:15;1.60;;;1.50;;
15669;SDS011;18524;45.190;5.732;2022-09-17T05:48:07;3.63;;;2.00;;
15669;SDS011;18524;45.190;5.732;2022-09-17T05:53:04;2.17;;;1.63;;
15669;SDS011;18524;45.190;5.732;2022-09-17T05:57:55;4.00;;;1.70;;
15669;SDS011;18524;45.190;5.732;2022-09-17T06:02:45;2.83;;;1.90;;
15669;SDS011;18524;45.190;5.732;2022-09-17T06:07:36;2.47;;;1.60;;
15669;SDS011;18524;45.190;5.732;2022-09-17T06:12:29;3.17;;;1.67;;
15669;SDS011;18524;45.190;5.732;2022-09-17T06:17:19;1.53;;;1.40;;
15669;SDS011;18524;45.190;5.732;2022-09-17T06:22:09;2.30;;;1.40;;
15669;SDS011;18524;45.190;5.732;2022-09-17T06:27:00;2.73;;;1.63;;
15669;SDS011;18524;45.190;5.732;2022-09-17T06:31:50;4.03;;;1.83;;
15669;SDS011;18524;45.190;5.732;2022-09-17T06:36:41;3.73;;;1.80;;
15669;SDS011;18524;45.190;5.732;2022-09-17T06:41:31;2.97;;;1.90;;
15669;SDS011;18524;45.190;5.732;2022-09-17T06:46:22;3.20;;;1.60;;
15669;SDS011;18524;45.190;5.732;2022-09-17T06:51:12;3.87;;;1.70;;
15669;SDS011;18524;45.190;5.732;2022-09-17T06:56:04;2.20;;;1.60;;
15669;SDS011;18524;45.190;5.732;2022-09-17T07:00:59;1.93;;;1.50;;
15669;SDS011;18524;45.190;5.732;2022-09-17T07:05:50;3.40;;;1.50;;
15669;SDS011;18524;45.190;5.732;2022-09-17T07:10:40;1.40;;;1.20;;
15669;SDS011;18524;45.190;5.732;2022-09-17T07:15:31;1.77;;;1.10;;
15669;SDS011;18524;45.190;5.732;2022-09-17T07:20:21;1.57;;;1.10;;
15669;SDS011;18524;45.190;5.732;2022-09-17T07:25:11;1.33;;;1.23;;
15669;SDS011;18524;45.190;5.732;2022-09-17T07:30:02;0.93;;;0.87;;
15669;SDS011;18524;45.190;5.732;2022-09-17T07:34:53;1.03;;;0.97;;
15669;SDS011;18524;45.190;5.732;2022-09-17T07:39:43;1.50;;;1.10;;
15669;SDS011;18524;45.190;5.732;2022-09-17T07:44:34;2.17;;;1.10;;
15669;SDS011;18524;45.190;5.732;2022-09-17T07:49:25;2.57;;;1.10;;
15669;SDS011;18524;45.190;5.732;2022-09-17T07:54:15;1.07;;;0.90;;
15669;SDS011;18524;45.190;5.732;2022-09-17T07:59:06;0.77;;;0.67;;
15669;SDS011;18524;45.190;5.732;2022-09-17T08:03:56;1.73;;;1.10;;
15669;SDS011;18524;45.190;5.732;2022-09-17T08:08:47;1.30;;;0.90;;
15669;SDS011;18524;45.190;5.732;2022-09-17T08:13:38;1.90;;;1.00;;
15669;SDS011;18524;45.190;5.732;2022-09-17T08:18:29;2.27;;;1.10;;
15669;SDS011;18524;45.190;5.732;2022-09-17T08:23:20;2.83;;;0.90;;
15669;SDS011;18524;45.190;5.732;2022-09-17T08:28:10;0.80;;;0.80;;
15669;SDS011;18524;45.190;5.732;2022-09-17T08:33:00;1.43;;;0.90;;
15669;SDS011;18524;45.190;5.732;2022-09-17T08:37:53;1.97;;;0.93;;
15669;SDS011;18524;45.190;5.732;2022-09-17T08:42:54;2.33;;;0.70;;
15669;SDS011;18524;45.190;5.732;2022-09-17T08:47:49;1.40;;;0.70;;
15669;SDS011;18524;45.190;5.732;2022-09-17T09:13:31;0.70;;;0.50;;
15669;SDS011;18524;45.190;5.732;2022-09-17T09:18:26;0.70;;;0.60;;
15669;SDS011;18524;45.190;5.732;2022-09-17T09:23:33;4.00;;;3.10;;
15669;SDS011;18524;45.190;5.732;2022-09-17T09:33:35;1.23;;;0.83;;
15669;SDS011;18524;45.190;5.732;2022-09-17T09:43:23;1.27;;;0.50;;
15669;SDS011;18524;45.190;5.732;2022-09-17T09:48:22;1.53;;;0.40;;
15669;SDS011;18524;45.190;5.732;2022-09-17T09:58:50;0.30;;;0.30;;
15669;SDS011;18524;45.190;5.732;2022-09-17T10:03:42;1.00;;;0.60;;
15669;SDS011;18524;45.190;5.732;2022-09-17T10:08:38;1.20;;;0.80;;
15669;SDS011;18524;45.190;5.732;2022-09-17T10:13:32;1.73;;;0.70;;
15669;SDS011;18524;45.190;5.732;2022-09-17T10:18:24;0.80;;;0.70;;
15669;SDS011;18524;45.190;5.732;2022-09-17T10:23:15;0.90;;;0.90;;
15669;SDS011;18524;45.190;5.732;2022-09-17T10:28:19;0.73;;;0.50;;
15669;SDS011;18524;45.190;5.732;2022-09-17T10:33:18;2.27;;;1.00;;
15669;SDS011;18524;45.190;5.732;2022-09-17T10:38:33;0.60;;;0.60;;
15669;SDS011;18524;45.190;5.732;2022-09-17T10:43:22;2.57;;;0.80;;
15669;SDS011;18524;45.190;5.732;2022-09-17T10:48:15;0.63;;;0.60;;
15669;SDS011;18524;45.190;5.732;2022-09-17T10:53:14;2.57;;;2.13;;
15669;SDS011;18524;45.190;5.732;2022-09-17T11:03:13;1.47;;;0.70;;
15669;SDS011;18524;45.190;5.732;2022-09-17T11:08:28;1.40;;;0.73;;
15669;SDS011;18524;45.190;5.732;2022-09-17T11:44:37;0.80;;;0.70;;
15669;SDS011;18524;45.190;5.732;2022-09-17T11:49:43;1.30;;;0.87;;
15669;SDS011;18524;45.190;5.732;2022-09-17T11:54:51;0.83;;;0.70;;
15669;SDS011;18524;45.190;5.732;2022-09-17T12:04:51;1.40;;;0.70;;
15669;SDS011;18524;45.190;5.732;2022-09-17T12:09:48;0.90;;;0.50;;
15669;SDS011;18524;45.190;5.732;2022-09-17T12:14:55;1.27;;;0.60;;
15669;SDS011;18524;45.190;5.732;2022-09-17T12:19:50;0.90;;;0.67;;
15669;SDS011;18524;45.190;5.732;2022-09-17T12:24:45;2.00;;;0.70;;
15669;SDS011;18524;45.190;5.732;2022-09-17T12:39:57;1.07;;;0.50;;
15669;SDS011;18524;45.190;5.732;2022-09-17T12:50:25;0.80;;;0.60;;
15669;SDS011;18524;45.190;5.732;2022-09-17T13:00:47;0.80;;;0.50;;
15669;SDS011;18524;45.190;5.732;2022-09-17T13:16:15;0.60;;;0.43;;
15669;SDS011;18524;45.190;5.732;2022-09-17T13:21:22;1.10;;;0.30;;
15669;SDS011;18524;45.190;5.732;2022-09-17T13:26:31;0.57;;;0.50;;
15669;SDS011;18524;45.190;5.732;2022-09-17T13:36:42;1.37;;;0.40;;
15669;SDS011;18524;45.190;5.732;2022-09-17T13:41:38;0.30;;;0.30;;
15669;SDS011;18524;45.190;5.732;2022-09-17T13:46:31;0.40;;;0.40;;
15669;SDS011;18524;45.190;5.732;2022-09-17T13:56:29;1.67;;;0.50;;
15669;SDS011;18524;45.190;5.732;2022-09-17T14:06:46;1.00;;;0.47;;
15669;SDS011;18524;45.190;5.732;2022-09-17T14:11:39;1.57;;;0.50;;
15669;SDS011;18524;45.190;5.732;2022-09-17T14:21:32;0.87;;;0.40;;
15669;SDS011;18524;45.190;5.732;2022-09-17T14:26:29;1.70;;;0.40;;
15669;SDS011;18524;45.190;5.732;2022-09-17T14:31:43;0.40;;;0.40;;
15669;SDS011;18524;45.190;5.732;2022-09-17T14:36:34;2.30;;;0.60;;
15669;SDS011;18524;45.190;5.732;2022-09-17T14:41:29;1.27;;;0.30;;
15669;SDS011;18524;45.190;5.732;2022-09-17T14:46:26;0.47;;;0.20;;
15669;SDS011;18524;45.190;5.732;2022-09-17T14:56:15;0.83;;;0.40;;
15669;SDS011;18524;45.190;5.732;2022-09-17T15:06:21;1.33;;;0.50;;
15669;SDS011;18524;45.190;5.732;2022-09-17T15:11:12;0.80;;;0.47;;
15669;SDS011;18524;45.190;5.732;2022-09-17T15:16:04;1.83;;;0.60;;
15669;SDS011;18524;45.190;5.732;2022-09-17T15:21:10;1.00;;;0.40;;
15669;SDS011;18524;45.190;5.732;2022-09-17T15:26:10;0.47;;;0.30;;
15669;SDS011;18524;45.190;5.732;2022-09-17T15:31:02;1.57;;;0.40;;
15669;SDS011;18524;45.190;5.732;2022-09-17T15:35:58;1.70;;;0.50;;
15669;SDS011;18524;45.190;5.732;2022-09-17T15:40:51;1.07;;;0.40;;
15669;SDS011;18524;45.190;5.732;2022-09-17T15:45:42;1.80;;;0.33;;
15669;SDS011;18524;45.190;5.732;2022-09-17T15:50:33;0.80;;;0.40;;
15669;SDS011;18524;45.190;5.732;2022-09-17T15:55:25;0.83;;;0.30;;
15669;SDS011;18524;45.190;5.732;2022-09-17T16:00:19;1.67;;;0.40;;
15669;SDS011;18524;45.190;5.732;2022-09-17T16:10:06;0.93;;;0.50;;
15669;SDS011;18524;45.190;5.732;2022-09-17T16:14:58;0.53;;;0.40;;
15669;SDS011;18524;45.190;5.732;2022-09-17T16:19:50;1.20;;;0.60;;
15669;SDS011;18524;45.190;5.732;2022-09-17T16:24:40;1.50;;;0.40;;
15669;SDS011;18524;45.190;5.732;2022-09-17T16:29:31;1.63;;;0.40;;
15669;SDS011;18524;45.190;5.732;2022-09-17T16:34:21;0.87;;;0.40;;
15669;SDS011;18524;45.190;5.732;2022-09-17T16:39:12;2.43;;;0.70;;
15669;SDS011;18524;45.190;5.732;2022-09-17T16:44:02;1.00;;;0.50;;
15669;SDS011;18524;45.190;5.732;2022-09-17T16:48:52;0.70;;;0.40;;
15669;SDS011;18524;45.190;5.732;2022-09-17T16:53:43;1.40;;;0.53;;
15669;SDS011;18524;45.190;5.732;2022-09-17T16:58:33;2.23;;;0.80;;
15669;SDS011;18524;45.190;5.732;2022-09-17T17:03:24;2.33;;;1.10;;
15669;SDS011;18524;45.190;5.732;2022-09-17T17:08:14;2.60;;;1.30;;
15669;SDS011;18524;45.190;5.732;2022-09-17T17:13:05;1.07;;;0.70;;
15669;SDS011;18524;45.190;5.732;2022-09-17T17:17:56;2.07;;;0.80;;
15669;SDS011;18524;45.190;5.732;2022-09-17T17:22:47;1.47;;;1.10;;
15669;SDS011;18524;45.190;5.732;2022-09-17T17:27:37;2.60;;;0.90;;
15669;SDS011;18524;45.190;5.732;2022-09-17T17:32:28;1.70;;;1.00;;
15669;SDS011;18524;45.190;5.732;2022-09-17T17:37:19;2.00;;;1.13;;
15669;SDS011;18524;45.190;5.732;2022-09-17T17:42:12;1.57;;;1.23;;
15669;SDS011;18524;45.190;5.732;2022-09-17T17:47:02;1.37;;;0.93;;
15669;SDS011;18524;45.190;5.732;2022-09-17T17:51:53;1.60;;;1.00;;
15669;SDS011;18524;45.190;5.732;2022-09-17T17:56:43;1.13;;;0.70;;
15669;SDS011;18524;45.190;5.732;2022-09-17T18:01:33;1.67;;;0.80;;
15669;SDS011;18524;45.190;5.732;2022-09-17T18:06:24;2.50;;;0.80;;
15669;SDS011;18524;45.190;5.732;2022-09-17T18:11:16;2.37;;;1.10;;
15669;SDS011;18524;45.190;5.732;2022-09-17T18:16:06;1.60;;;0.97;;
15669;SDS011;18524;45.190;5.732;2022-09-17T18:21:06;1.63;;;0.60;;
15669;SDS011;18524;45.190;5.732;2022-09-17T18:25:58;1.30;;;0.90;;
15669;SDS011;18524;45.190;5.732;2022-09-17T18:30:49;3.33;;;1.30;;
15669;SDS011;18524;45.190;5.732;2022-09-17T18:35:40;1.73;;;0.97;;
15669;SDS011;18524;45.190;5.732;2022-09-17T18:40:31;1.70;;;1.30;;
15669;SDS011;18524;45.190;5.732;2022-09-17T18:45:22;1.77;;;1.53;;
15669;SDS011;18524;45.190;5.732;2022-09-17T18:50:12;2.23;;;1.00;;
15669;SDS011;18524;45.190;5.732;2022-09-17T18:55:03;1.83;;;1.43;;
15669;SDS011;18524;45.190;5.732;2022-09-17T18:59:53;2.70;;;1.37;;
15669;SDS011;18524;45.190;5.732;2022-09-17T19:04:44;1.70;;;1.10;;
15669;SDS011;18524;45.190;5.732;2022-09-17T19:09:34;1.90;;;1.20;;
15669;SDS011;18524;45.190;5.732;2022-09-17T19:14:24;1.30;;;1.13;;
15669;SDS011;18524;45.190;5.732;2022-09-17T19:19:15;1.60;;;1.30;;
15669;SDS011;18524;45.190;5.732;2022-09-17T19:24:05;1.77;;;1.20;;
15669;SDS011;18524;45.190;5.732;2022-09-17T19:28:56;2.90;;;1.30;;
15669;SDS011;18524;45.190;5.732;2022-09-17T19:33:49;1.63;;;1.40;;
15669;SDS011;18524;45.190;5.732;2022-09-17T19:38:40;1.63;;;1.30;;
15669;SDS011;18524;45.190;5.732;2022-09-17T19:43:31;1.80;;;1.10;;
15669;SDS011;18524;45.190;5.732;2022-09-17T19:48:22;2.17;;;1.10;;
15669;SDS011;18524;45.190;5.732;2022-09-17T19:53:12;2.17;;;1.13;;
15669;SDS011;18524;45.190;5.732;2022-09-17T19:58:03;1.47;;;1.20;;
15669;SDS011;18524;45.190;5.732;2022-09-17T20:02:53;2.57;;;1.33;;
15669;SDS011;18524;45.190;5.732;2022-09-17T20:07:43;1.90;;;0.90;;
15669;SDS011;18524;45.190;5.732;2022-09-17T20:12:34;1.37;;;1.13;;
15669;SDS011;18524;45.190;5.732;2022-09-17T20:17:24;1.23;;;1.00;;
15669;SDS011;18524;45.190;5.732;2022-09-17T20:22:15;1.27;;;0.93;;
15669;SDS011;18524;45.190;5.732;2022-09-17T20:27:05;2.60;;;1.07;;
15669;SDS011;18524;45.190;5.732;2022-09-17T20:31:55;1.00;;;0.90;;
15669;SDS011;18524;45.190;5.732;2022-09-17T20:36:46;1.33;;;0.90;;
15669;SDS011;18524;45.190;5.732;2022-09-17T20:41:37;1.43;;;0.90;;
15669;SDS011;18524;45.190;5.732;2022-09-17T20:46:27;2.60;;;0.87;;
15669;SDS011;18524;45.190;5.732;2022-09-17T20:51:19;1.00;;;0.83;;
15669;SDS011;18524;45.190;5.732;2022-09-17T20:56:12;1.77;;;1.00;;
15669;SDS011;18524;45.190;5.732;2022-09-17T21:01:08;1.43;;;0.87;;
15669;SDS011;18524;45.190;5.732;2022-09-17T21:06:06;1.87;;;0.83;;
15669;SDS011;18524;45.190;5.732;2022-09-17T21:10:57;0.90;;;0.80;;
15669;SDS011;18524;45.190;5.732;2022-09-17T21:15:56;2.10;;;0.83;;
15669;SDS011;18524;45.190;5.732;2022-09-17T21:20:47;0.70;;;0.70;;
15669;SDS011;18524;45.190;5.732;2022-09-17T21:25:37;1.50;;;0.90;;
15669;SDS011;18524;45.190;5.732;2022-09-17T21:30:28;2.93;;;0.87;;
15669;SDS011;18524;45.190;5.732;2022-09-17T21:35:18;1.13;;;0.70;;
15669;SDS011;18524;45.190;5.732;2022-09-17T21:40:09;1.73;;;0.90;;
15669;SDS011;18524;45.190;5.732;2022-09-17T21:44:59;1.80;;;0.87;;
15669;SDS011;18524;45.190;5.732;2022-09-17T21:49:50;1.17;;;0.63;;
15669;SDS011;18524;45.190;5.732;2022-09-17T21:54:40;1.00;;;0.70;;
15669;SDS011;18524;45.190;5.732;2022-09-17T21:59:31;1.63;;;0.80;;
15669;SDS011;18524;45.190;5.732;2022-09-17T22:04:21;1.23;;;0.93;;
15669;SDS011;18524;45.190;5.732;2022-09-17T22:09:13;3.03;;;0.70;;
15669;SDS011;18524;45.190;5.732;2022-09-17T22:14:13;1.53;;;0.77;;
15669;SDS011;18524;45.190;5.732;2022-09-17T22:19:08;1.10;;;0.73;;
15669;SDS011;18524;45.190;5.732;2022-09-17T22:24:00;1.80;;;0.80;;
15669;SDS011;18524;45.190;5.732;2022-09-17T22:28:52;1.53;;;0.63;;
15669;SDS011;18524;45.190;5.732;2022-09-17T22:33:43;0.97;;;0.80;;
15669;SDS011;18524;45.190;5.732;2022-09-17T22:38:35;1.20;;;0.90;;
15669;SDS011;18524;45.190;5.732;2022-09-17T22:43:26;1.10;;;0.60;;
15669;SDS011;18524;45.190;5.732;2022-09-17T22:48:16;2.17;;;0.97;;
15669;SDS011;18524;45.190;5.732;2022-09-17T22:53:06;1.03;;;0.50;;
15669;SDS011;18524;45.190;5.732;2022-09-17T22:57:57;0.93;;;0.87;;
15669;SDS011;18524;45.190;5.732;2022-09-17T23:02:47;1.63;;;0.80;;
15669;SDS011;18524;45.190;5.732;2022-09-17T23:07:38;1.10;;;0.67;;
15669;SDS011;18524;45.190;5.732;2022-09-17T23:12:28;1.37;;;0.77;;
15669;SDS011;18524;45.190;5.732;2022-09-17T23:17:18;1.23;;;0.93;;
15669;SDS011;18524;45.190;5.732;2022-09-17T23:22:09;2.03;;;0.70;;
15669;SDS011;18524;45.190;5.732;2022-09-17T23:26:59;0.67;;;0.67;;
15669;SDS011;18524;45.190;5.732;2022-09-17T23:31:50;1.30;;;0.70;;
15669;SDS011;18524;45.190;5.732;2022-09-17T23:36:40;2.83;;;0.50;;
15669;SDS011;18524;45.190;5.732;2022-09-17T23:41:31;1.70;;;0.77;;
15669;SDS011;18524;45.190;5.732;2022-09-17T23:46:24;2.13;;;0.60;;
15669;SDS011;18524;45.190;5.732;2022-09-17T23:51:15;0.70;;;0.60;;
15669;SDS011;18524;45.190;5.732;2022-09-17T23:56:10;1.27;;;0.60;;
